KMER/MER METAR and TAF weather

Enter ICAO airport designator
Station Type Date Time Source
KMER METAR 2022/08/12 13:45 UTC NOAA

KMER 121345Z 29006KT 10SM CLR 17/11 A2998


Station Type Date Time Source
KMER Decoded METAR 2022/08/12 13:45 UTC NOAA

Merced / Castle Air Force Base, CA, United States (KMER) 37-22N 120-34W 60M
Aug 12, 2022 - 09:45 AM EDT / 2022.08.12 1345 UTC
Wind: from the WNW (290 degrees) at 7 MPH (6 KT):0
Visibility: 10 mile(s):0
Sky conditions: clear
Temperature: 62 F (17 C)
Dew Point: 51 F (11 C)
Relative Humidity: 67%
Pressure (altimeter): 29.98 in. Hg (1015 hPa)
ob: KMER 121345Z 29006KT 10SM CLR 17/11 A2998
cycle: 14

Station Type Date Time Source
KMER TAF 2022/08/12 12:27 UTC NOAA

TAF KMER 121120Z 1212/1312 32008KT P6SM SKC

Example: see airport list